sensor_id;sensor_type;location;lat;lon;timestamp;P1;durP1;ratioP1;P2;durP2;ratioP2
70010;SDS011;59543;37.950;-122.338;2023-03-31T00:00:58;5.82;;;1.30;;
70010;SDS011;59543;37.950;-122.338;2023-03-31T00:03:28;5.00;;;1.40;;
70010;SDS011;59543;37.950;-122.338;2023-03-31T00:05:58;8.93;;;1.33;;
70010;SDS011;59543;37.950;-122.338;2023-03-31T00:08:26;7.40;;;1.35;;
70010;SDS011;59543;37.950;-122.338;2023-03-31T00:10:57;4.10;;;1.20;;
70010;SDS011;59543;37.950;-122.338;2023-03-31T00:13:25;7.07;;;1.17;;
70010;SDS011;59543;37.950;-122.338;2023-03-31T00:16:02;5.70;;;1.17;;
70010;SDS011;59543;37.950;-122.338;2023-03-31T00:18:31;6.97;;;1.65;;
70010;SDS011;59543;37.950;-122.338;2023-03-31T00:21:16;7.97;;;1.30;;
70010;SDS011;59543;37.950;-122.338;2023-03-31T00:23:57;7.85;;;1.52;;
70010;SDS011;59543;37.950;-122.338;2023-03-31T00:26:34;7.07;;;1.40;;
70010;SDS011;59543;37.950;-122.338;2023-03-31T00:29:01;6.20;;;1.55;;
70010;SDS011;59543;37.950;-122.338;2023-03-31T00:31:29;7.18;;;1.52;;
70010;SDS011;59543;37.950;-122.338;2023-03-31T00:33:55;7.82;;;2.03;;
70010;SDS011;59543;37.950;-122.338;2023-03-31T00:36:22;9.02;;;2.22;;
70010;SDS011;59543;37.950;-122.338;2023-03-31T00:38:52;8.00;;;2.10;;
70010;SDS011;59543;37.950;-122.338;2023-03-31T00:41:20;8.45;;;1.60;;
70010;SDS011;59543;37.950;-122.338;2023-03-31T00:51:48;8.57;;;1.95;;
70010;SDS011;59543;37.950;-122.338;2023-03-31T00:54:16;7.75;;;2.15;;
70010;SDS011;59543;37.950;-122.338;2023-03-31T00:56:44;10.55;;;2.53;;
70010;SDS011;59543;37.950;-122.338;2023-03-31T00:59:13;8.85;;;2.20;;
70010;SDS011;59543;37.950;-122.338;2023-03-31T01:01:41;11.68;;;2.33;;
70010;SDS011;59543;37.950;-122.338;2023-03-31T01:04:11;6.95;;;2.00;;
70010;SDS011;59543;37.950;-122.338;2023-03-31T01:06:47;13.60;;;2.20;;
70010;SDS011;59543;37.950;-122.338;2023-03-31T01:09:23;18.98;;;2.50;;
70010;SDS011;59543;37.950;-122.338;2023-03-31T01:11:50;11.52;;;2.30;;
70010;SDS011;59543;37.950;-122.338;2023-03-31T01:14:17;10.35;;;2.53;;
70010;SDS011;59543;37.950;-122.338;2023-03-31T01:16:43;12.02;;;2.78;;
70010;SDS011;59543;37.950;-122.338;2023-03-31T01:19:12;9.63;;;2.13;;
70010;SDS011;59543;37.950;-122.338;2023-03-31T01:22:10;13.98;;;2.30;;
70010;SDS011;59543;37.950;-122.338;2023-03-31T01:28:00;14.40;;;2.20;;
70010;SDS011;59543;37.950;-122.338;2023-03-31T01:36:21;13.88;;;2.65;;
70010;SDS011;59543;37.950;-122.338;2023-03-31T01:44:42;9.77;;;2.00;;
70010;SDS011;59543;37.950;-122.338;2023-03-31T01:47:15;10.63;;;2.50;;
70010;SDS011;59543;37.950;-122.338;2023-03-31T01:50:07;11.85;;;2.08;;
70010;SDS011;59543;37.950;-122.338;2023-03-31T01:52:54;13.20;;;2.72;;
70010;SDS011;59543;37.950;-122.338;2023-03-31T01:55:37;14.87;;;3.10;;
70010;SDS011;59543;37.950;-122.338;2023-03-31T01:58:12;11.48;;;3.00;;
70010;SDS011;59543;37.950;-122.338;2023-03-31T02:00:59;13.45;;;2.92;;
70010;SDS011;59543;37.950;-122.338;2023-03-31T02:03:36;11.05;;;3.03;;
70010;SDS011;59543;37.950;-122.338;2023-03-31T02:06:12;15.00;;;3.20;;
70010;SDS011;59543;37.950;-122.338;2023-03-31T02:08:45;11.82;;;3.15;;
70010;SDS011;59543;37.950;-122.338;2023-03-31T02:11:18;12.13;;;2.70;;
70010;SDS011;59543;37.950;-122.338;2023-03-31T02:13:45;14.05;;;3.28;;
70010;SDS011;59543;37.950;-122.338;2023-03-31T02:16:17;13.02;;;2.83;;
70010;SDS011;59543;37.950;-122.338;2023-03-31T02:18:48;12.30;;;2.58;;
70010;SDS011;59543;37.950;-122.338;2023-03-31T02:21:17;15.18;;;3.25;;
70010;SDS011;59543;37.950;-122.338;2023-03-31T02:23:44;12.38;;;2.80;;
70010;SDS011;59543;37.950;-122.338;2023-03-31T02:26:23;12.85;;;3.10;;
70010;SDS011;59543;37.950;-122.338;2023-03-31T02:28:55;11.85;;;2.47;;
70010;SDS011;59543;37.950;-122.338;2023-03-31T02:34:17;13.85;;;3.42;;
70010;SDS011;59543;37.950;-122.338;2023-03-31T02:36:43;11.75;;;2.88;;
70010;SDS011;59543;37.950;-122.338;2023-03-31T02:39:14;13.77;;;3.13;;
70010;SDS011;59543;37.950;-122.338;2023-03-31T02:42:01;12.75;;;2.88;;
70010;SDS011;59543;37.950;-122.338;2023-03-31T02:44:32;11.40;;;2.90;;
70010;SDS011;59543;37.950;-122.338;2023-03-31T02:47:00;15.00;;;3.20;;
70010;SDS011;59543;37.950;-122.338;2023-03-31T02:49:29;10.20;;;2.70;;
70010;SDS011;59543;37.950;-122.338;2023-03-31T02:52:15;11.18;;;2.92;;
70010;SDS011;59543;37.950;-122.338;2023-03-31T03:03:52;20.75;;;3.42;;
70010;SDS011;59543;37.950;-122.338;2023-03-31T03:09:35;13.18;;;2.80;;
70010;SDS011;59543;37.950;-122.338;2023-03-31T03:17:42;16.63;;;3.75;;
70010;SDS011;59543;37.950;-122.338;2023-03-31T03:20:11;16.60;;;3.90;;
70010;SDS011;59543;37.950;-122.338;2023-03-31T03:22:38;13.30;;;3.05;;
70010;SDS011;59543;37.950;-122.338;2023-03-31T03:25:05;14.27;;;3.60;;
70010;SDS011;59543;37.950;-122.338;2023-03-31T03:27:37;15.45;;;3.42;;
70010;SDS011;59543;37.950;-122.338;2023-03-31T03:30:05;14.57;;;3.35;;
70010;SDS011;59543;37.950;-122.338;2023-03-31T03:32:33;19.52;;;3.70;;
70010;SDS011;59543;37.950;-122.338;2023-03-31T03:35:00;19.95;;;4.15;;
70010;SDS011;59543;37.950;-122.338;2023-03-31T03:37:27;20.60;;;3.92;;
70010;SDS011;59543;37.950;-122.338;2023-03-31T03:39:54;21.13;;;3.60;;
70010;SDS011;59543;37.950;-122.338;2023-03-31T03:42:20;15.82;;;3.47;;
70010;SDS011;59543;37.950;-122.338;2023-03-31T03:44:47;14.10;;;3.45;;
70010;SDS011;59543;37.950;-122.338;2023-03-31T03:47:13;12.30;;;3.55;;
70010;SDS011;59543;37.950;-122.338;2023-03-31T03:49:40;17.77;;;3.83;;
70010;SDS011;59543;37.950;-122.338;2023-03-31T03:52:06;16.77;;;3.83;;
70010;SDS011;59543;37.950;-122.338;2023-03-31T03:54:33;19.35;;;4.63;;
70010;SDS011;59543;37.950;-122.338;2023-03-31T03:57:00;17.27;;;3.72;;
70010;SDS011;59543;37.950;-122.338;2023-03-31T03:59:26;22.75;;;3.75;;
70010;SDS011;59543;37.950;-122.338;2023-03-31T04:01:52;15.93;;;3.40;;
70010;SDS011;59543;37.950;-122.338;2023-03-31T04:04:19;20.35;;;4.57;;
70010;SDS011;59543;37.950;-122.338;2023-03-31T04:06:45;19.95;;;3.75;;
70010;SDS011;59543;37.950;-122.338;2023-03-31T04:09:11;18.63;;;4.25;;
70010;SDS011;59543;37.950;-122.338;2023-03-31T04:11:37;23.80;;;4.35;;
70010;SDS011;59543;37.950;-122.338;2023-03-31T04:14:04;18.73;;;3.92;;
70010;SDS011;59543;37.950;-122.338;2023-03-31T04:16:30;21.42;;;4.15;;
70010;SDS011;59543;37.950;-122.338;2023-03-31T04:18:58;24.73;;;3.88;;
70010;SDS011;59543;37.950;-122.338;2023-03-31T04:21:28;17.42;;;3.58;;
70010;SDS011;59543;37.950;-122.338;2023-03-31T04:23:59;16.90;;;4.28;;
70010;SDS011;59543;37.950;-122.338;2023-03-31T04:26:32;19.05;;;4.22;;
70010;SDS011;59543;37.950;-122.338;2023-03-31T04:29:12;23.92;;;4.28;;
70010;SDS011;59543;37.950;-122.338;2023-03-31T04:31:40;24.70;;;4.38;;
70010;SDS011;59543;37.950;-122.338;2023-03-31T04:34:08;19.20;;;4.88;;
70010;SDS011;59543;37.950;-122.338;2023-03-31T04:36:42;19.02;;;4.40;;
70010;SDS011;59543;37.950;-122.338;2023-03-31T04:41:41;22.98;;;4.40;;
70010;SDS011;59543;37.950;-122.338;2023-03-31T04:44:08;15.82;;;3.92;;
70010;SDS011;59543;37.950;-122.338;2023-03-31T04:46:35;23.98;;;4.70;;
70010;SDS011;59543;37.950;-122.338;2023-03-31T04:49:01;21.77;;;4.40;;
70010;SDS011;59543;37.950;-122.338;2023-03-31T04:51:29;22.63;;;5.28;;
70010;SDS011;59543;37.950;-122.338;2023-03-31T04:53:56;14.93;;;3.85;;
70010;SDS011;59543;37.950;-122.338;2023-03-31T04:56:22;24.63;;;4.70;;
70010;SDS011;59543;37.950;-122.338;2023-03-31T04:58:48;21.98;;;4.25;;
70010;SDS011;59543;37.950;-122.338;2023-03-31T05:01:15;19.58;;;4.15;;
70010;SDS011;59543;37.950;-122.338;2023-03-31T05:03:44;19.85;;;4.43;;
70010;SDS011;59543;37.950;-122.338;2023-03-31T05:06:12;22.13;;;4.72;;
70010;SDS011;59543;37.950;-122.338;2023-03-31T05:08:42;21.77;;;4.40;;
70010;SDS011;59543;37.950;-122.338;2023-03-31T05:11:09;26.20;;;4.43;;
70010;SDS011;59543;37.950;-122.338;2023-03-31T05:13:36;19.55;;;4.32;;
70010;SDS011;59543;37.950;-122.338;2023-03-31T05:16:06;22.85;;;4.40;;
70010;SDS011;59543;37.950;-122.338;2023-03-31T05:18:33;20.25;;;4.63;;
70010;SDS011;59543;37.950;-122.338;2023-03-31T05:21:13;17.60;;;4.18;;
70010;SDS011;59543;37.950;-122.338;2023-03-31T05:23:41;17.15;;;4.68;;
70010;SDS011;59543;37.950;-122.338;2023-03-31T05:26:07;25.92;;;5.40;;
70010;SDS011;59543;37.950;-122.338;2023-03-31T05:28:35;21.15;;;4.13;;
70010;SDS011;59543;37.950;-122.338;2023-03-31T05:31:02;16.30;;;3.97;;
70010;SDS011;59543;37.950;-122.338;2023-03-31T05:33:31;18.73;;;4.47;;
70010;SDS011;59543;37.950;-122.338;2023-03-31T05:35:58;18.50;;;4.35;;
70010;SDS011;59543;37.950;-122.338;2023-03-31T05:38:25;19.50;;;4.25;;
70010;SDS011;59543;37.950;-122.338;2023-03-31T05:40:54;20.15;;;4.82;;
70010;SDS011;59543;37.950;-122.338;2023-03-31T05:43:20;22.67;;;5.43;;
70010;SDS011;59543;37.950;-122.338;2023-03-31T05:45:46;16.08;;;3.80;;
70010;SDS011;59543;37.950;-122.338;2023-03-31T05:48:13;17.90;;;4.03;;
70010;SDS011;59543;37.950;-122.338;2023-03-31T05:50:39;16.38;;;4.55;;
70010;SDS011;59543;37.950;-122.338;2023-03-31T05:53:07;20.38;;;5.05;;
70010;SDS011;59543;37.950;-122.338;2023-03-31T05:55:36;20.70;;;4.95;;
70010;SDS011;59543;37.950;-122.338;2023-03-31T05:58:03;21.35;;;5.05;;
70010;SDS011;59543;37.950;-122.338;2023-03-31T06:00:31;19.77;;;4.65;;
70010;SDS011;59543;37.950;-122.338;2023-03-31T06:02:57;19.60;;;4.28;;
70010;SDS011;59543;37.950;-122.338;2023-03-31T06:05:24;20.23;;;4.80;;
70010;SDS011;59543;37.950;-122.338;2023-03-31T06:07:55;30.60;;;8.70;;
70010;SDS011;59543;37.950;-122.338;2023-03-31T06:10:22;26.85;;;8.48;;
70010;SDS011;59543;37.950;-122.338;2023-03-31T06:15:14;19.25;;;5.18;;
70010;SDS011;59543;37.950;-122.338;2023-03-31T06:17:40;19.17;;;5.03;;
70010;SDS011;59543;37.950;-122.338;2023-03-31T06:20:06;33.67;;;5.78;;
70010;SDS011;59543;37.950;-122.338;2023-03-31T06:22:33;27.33;;;5.35;;
70010;SDS011;59543;37.950;-122.338;2023-03-31T06:24:59;19.60;;;5.10;;
70010;SDS011;59543;37.950;-122.338;2023-03-31T06:27:26;21.63;;;5.03;;
70010;SDS011;59543;37.950;-122.338;2023-03-31T06:32:19;27.25;;;4.47;;
70010;SDS011;59543;37.950;-122.338;2023-03-31T06:34:45;22.77;;;4.70;;
70010;SDS011;59543;37.950;-122.338;2023-03-31T06:37:12;23.35;;;4.90;;
70010;SDS011;59543;37.950;-122.338;2023-03-31T06:39:38;20.52;;;4.75;;
70010;SDS011;59543;37.950;-122.338;2023-03-31T06:42:04;27.80;;;5.15;;
70010;SDS011;59543;37.950;-122.338;2023-03-31T06:44:31;21.92;;;4.72;;
70010;SDS011;59543;37.950;-122.338;2023-03-31T06:49:23;19.70;;;4.05;;
70010;SDS011;59543;37.950;-122.338;2023-03-31T06:51:50;23.13;;;5.32;;
70010;SDS011;59543;37.950;-122.338;2023-03-31T06:54:16;16.20;;;4.45;;
70010;SDS011;59543;37.950;-122.338;2023-03-31T06:56:43;19.55;;;4.10;;
70010;SDS011;59543;37.950;-122.338;2023-03-31T07:01:35;25.33;;;4.78;;
70010;SDS011;59543;37.950;-122.338;2023-03-31T07:04:03;23.63;;;5.47;;
70010;SDS011;59543;37.950;-122.338;2023-03-31T07:06:29;20.92;;;5.20;;
70010;SDS011;59543;37.950;-122.338;2023-03-31T07:08:56;24.27;;;4.65;;
70010;SDS011;59543;37.950;-122.338;2023-03-31T07:13:48;23.08;;;4.95;;
70010;SDS011;59543;37.950;-122.338;2023-03-31T07:16:14;23.02;;;5.03;;
70010;SDS011;59543;37.950;-122.338;2023-03-31T07:21:06;18.75;;;4.65;;
70010;SDS011;59543;37.950;-122.338;2023-03-31T07:23:33;20.42;;;5.20;;
70010;SDS011;59543;37.950;-122.338;2023-03-31T07:26:00;26.13;;;5.35;;
70010;SDS011;59543;37.950;-122.338;2023-03-31T07:28:29;24.83;;;5.05;;
70010;SDS011;59543;37.950;-122.338;2023-03-31T07:30:56;21.17;;;4.63;;
70010;SDS011;59543;37.950;-122.338;2023-03-31T07:33:23;18.75;;;4.32;;
70010;SDS011;59543;37.950;-122.338;2023-03-31T07:35:49;23.83;;;5.13;;
70010;SDS011;59543;37.950;-122.338;2023-03-31T07:38:15;20.00;;;4.85;;
70010;SDS011;59543;37.950;-122.338;2023-03-31T07:40:44;18.67;;;3.97;;
70010;SDS011;59543;37.950;-122.338;2023-03-31T07:43:10;20.35;;;4.80;;
70010;SDS011;59543;37.950;-122.338;2023-03-31T07:45:37;22.05;;;4.80;;
70010;SDS011;59543;37.950;-122.338;2023-03-31T07:48:05;25.58;;;5.63;;
70010;SDS011;59543;37.950;-122.338;2023-03-31T07:50:31;23.88;;;4.95;;
70010;SDS011;59543;37.950;-122.338;2023-03-31T07:52:57;27.02;;;5.72;;
70010;SDS011;59543;37.950;-122.338;2023-03-31T07:55:23;23.05;;;5.15;;
70010;SDS011;59543;37.950;-122.338;2023-03-31T07:57:51;26.58;;;4.70;;
70010;SDS011;59543;37.950;-122.338;2023-03-31T08:00:18;22.52;;;5.45;;
70010;SDS011;59543;37.950;-122.338;2023-03-31T08:02:44;28.30;;;5.05;;
70010;SDS011;59543;37.950;-122.338;2023-03-31T08:05:11;25.67;;;5.28;;
70010;SDS011;59543;37.950;-122.338;2023-03-31T08:07:40;22.60;;;5.13;;
70010;SDS011;59543;37.950;-122.338;2023-03-31T08:10:09;26.80;;;5.30;;
70010;SDS011;59543;37.950;-122.338;2023-03-31T08:12:41;27.20;;;5.88;;
70010;SDS011;59543;37.950;-122.338;2023-03-31T08:15:08;27.67;;;5.63;;
70010;SDS011;59543;37.950;-122.338;2023-03-31T08:17:35;20.27;;;4.93;;
70010;SDS011;59543;37.950;-122.338;2023-03-31T08:20:03;29.48;;;5.35;;
70010;SDS011;59543;37.950;-122.338;2023-03-31T08:22:37;23.27;;;5.30;;
70010;SDS011;59543;37.950;-122.338;2023-03-31T08:25:05;28.90;;;5.57;;
70010;SDS011;59543;37.950;-122.338;2023-03-31T08:27:33;26.38;;;5.80;;
70010;SDS011;59543;37.950;-122.338;2023-03-31T08:30:00;21.38;;;5.18;;
70010;SDS011;59543;37.950;-122.338;2023-03-31T08:32:31;29.30;;;6.10;;
70010;SDS011;59543;37.950;-122.338;2023-03-31T08:34:58;25.30;;;5.57;;
70010;SDS011;59543;37.950;-122.338;2023-03-31T08:37:25;25.92;;;5.15;;
70010;SDS011;59543;37.950;-122.338;2023-03-31T08:39:53;29.30;;;5.80;;
70010;SDS011;59543;37.950;-122.338;2023-03-31T08:42:33;25.52;;;5.80;;
70010;SDS011;59543;37.950;-122.338;2023-03-31T08:45:13;34.42;;;6.15;;
70010;SDS011;59543;37.950;-122.338;2023-03-31T08:47:42;29.00;;;5.70;;
70010;SDS011;59543;37.950;-122.338;2023-03-31T08:50:11;29.52;;;5.90;;
70010;SDS011;59543;37.950;-122.338;2023-03-31T08:52:47;23.92;;;5.45;;
70010;SDS011;59543;37.950;-122.338;2023-03-31T08:55:26;21.20;;;4.75;;
70010;SDS011;59543;37.950;-122.338;2023-03-31T09:00:45;25.73;;;5.47;;
70010;SDS011;59543;37.950;-122.338;2023-03-31T09:06:26;27.92;;;5.88;;
70010;SDS011;59543;37.950;-122.338;2023-03-31T09:09:03;26.30;;;5.07;;
70010;SDS011;59543;37.950;-122.338;2023-03-31T09:11:44;23.90;;;5.47;;
70010;SDS011;59543;37.950;-122.338;2023-03-31T09:14:45;26.20;;;5.18;;
70010;SDS011;59543;37.950;-122.338;2023-03-31T09:19:44;28.40;;;5.68;;
70010;SDS011;59543;37.950;-122.338;2023-03-31T09:22:23;22.67;;;5.57;;
70010;SDS011;59543;37.950;-122.338;2023-03-31T09:24:55;28.25;;;5.75;;
70010;SDS011;59543;37.950;-122.338;2023-03-31T09:27:23;27.83;;;5.53;;
70010;SDS011;59543;37.950;-122.338;2023-03-31T09:29:57;31.73;;;5.72;;
70010;SDS011;59543;37.950;-122.338;2023-03-31T09:32:34;32.40;;;6.38;;
70010;SDS011;59543;37.950;-122.338;2023-03-31T09:37:51;24.73;;;5.40;;
70010;SDS011;59543;37.950;-122.338;2023-03-31T09:40:23;25.92;;;6.13;;
70010;SDS011;59543;37.950;-122.338;2023-03-31T09:45:48;28.13;;;5.93;;
70010;SDS011;59543;37.950;-122.338;2023-03-31T09:48:17;22.75;;;5.00;;
70010;SDS011;59543;37.950;-122.338;2023-03-31T09:50:54;19.13;;;4.85;;
70010;SDS011;59543;37.950;-122.338;2023-03-31T09:55:59;27.48;;;5.78;;
70010;SDS011;59543;37.950;-122.338;2023-03-31T09:58:27;29.10;;;5.28;;
70010;SDS011;59543;37.950;-122.338;2023-03-31T10:00:57;25.38;;;5.35;;
70010;SDS011;59543;37.950;-122.338;2023-03-31T10:03:27;22.38;;;4.97;;
70010;SDS011;59543;37.950;-122.338;2023-03-31T10:06:01;26.65;;;5.63;;
70010;SDS011;59543;37.950;-122.338;2023-03-31T10:08:46;23.92;;;4.82;;
70010;SDS011;59543;37.950;-122.338;2023-03-31T10:11:13;21.00;;;4.57;;
70010;SDS011;59543;37.950;-122.338;2023-03-31T10:13:42;28.58;;;5.65;;
70010;SDS011;59543;37.950;-122.338;2023-03-31T10:16:21;24.83;;;4.75;;
70010;SDS011;59543;37.950;-122.338;2023-03-31T10:18:52;22.20;;;5.68;;
70010;SDS011;59543;37.950;-122.338;2023-03-31T10:21:25;28.88;;;6.13;;
70010;SDS011;59543;37.950;-122.338;2023-03-31T10:23:53;21.13;;;5.10;;
70010;SDS011;59543;37.950;-122.338;2023-03-31T10:26:21;21.33;;;5.10;;
70010;SDS011;59543;37.950;-122.338;2023-03-31T10:28:52;22.52;;;4.95;;
70010;SDS011;59543;37.950;-122.338;2023-03-31T10:31:22;20.23;;;4.78;;
70010;SDS011;59543;37.950;-122.338;2023-03-31T10:34:03;25.45;;;5.20;;
70010;SDS011;59543;37.950;-122.338;2023-03-31T10:36:37;22.95;;;5.22;;
70010;SDS011;59543;37.950;-122.338;2023-03-31T10:39:10;30.15;;;5.57;;
70010;SDS011;59543;37.950;-122.338;2023-03-31T10:41:40;27.77;;;5.18;;
70010;SDS011;59543;37.950;-122.338;2023-03-31T10:44:22;24.98;;;4.97;;
70010;SDS011;59543;37.950;-122.338;2023-03-31T10:47:20;19.83;;;5.38;;
70010;SDS011;59543;37.950;-122.338;2023-03-31T10:49:48;23.50;;;5.18;;
70010;SDS011;59543;37.950;-122.338;2023-03-31T10:52:23;21.05;;;4.78;;
70010;SDS011;59543;37.950;-122.338;2023-03-31T10:54:52;25.85;;;5.82;;
70010;SDS011;59543;37.950;-122.338;2023-03-31T10:57:26;19.73;;;4.75;;
70010;SDS011;59543;37.950;-122.338;2023-03-31T11:06:17;21.92;;;5.32;;
70010;SDS011;59543;37.950;-122.338;2023-03-31T11:09:22;17.92;;;5.03;;
70010;SDS011;59543;37.950;-122.338;2023-03-31T11:12:04;31.30;;;5.85;;
70010;SDS011;59543;37.950;-122.338;2023-03-31T11:14:54;23.42;;;5.20;;
70010;SDS011;59543;37.950;-122.338;2023-03-31T11:18:14;25.15;;;4.97;;
70010;SDS011;59543;37.950;-122.338;2023-03-31T11:20:27;30.10;;;5.50;;
70010;SDS011;59543;37.950;-122.338;2023-03-31T11:23:24;23.52;;;5.00;;
70010;SDS011;59543;37.950;-122.338;2023-03-31T11:31:24;19.65;;;4.38;;
70010;SDS011;59543;37.950;-122.338;2023-03-31T11:41:46;30.52;;;5.53;;
70010;SDS011;59543;37.950;-122.338;2023-03-31T11:44:17;17.10;;;4.30;;
70010;SDS011;59543;37.950;-122.338;2023-03-31T11:46:52;25.23;;;5.18;;
70010;SDS011;59543;37.950;-122.338;2023-03-31T11:49:29;24.20;;;4.97;;
70010;SDS011;59543;37.950;-122.338;2023-03-31T11:52:17;27.50;;;5.18;;
70010;SDS011;59543;37.950;-122.338;2023-03-31T11:54:59;24.77;;;5.72;;
70010;SDS011;59543;37.950;-122.338;2023-03-31T12:05:32;26.52;;;5.82;;
70010;SDS011;59543;37.950;-122.338;2023-03-31T12:08:06;26.85;;;5.25;;
70010;SDS011;59543;37.950;-122.338;2023-03-31T12:16:54;25.15;;;5.25;;
70010;SDS011;59543;37.950;-122.338;2023-03-31T12:19:38;28.85;;;5.78;;
70010;SDS011;59543;37.950;-122.338;2023-03-31T12:24:37;27.48;;;5.32;;
70010;SDS011;59543;37.950;-122.338;2023-03-31T12:29:41;26.58;;;5.47;;
70010;SDS011;59543;37.950;-122.338;2023-03-31T12:32:17;10.50;;;1.55;;
70010;SDS011;59543;37.950;-122.338;2023-03-31T12:34:50;26.55;;;6.53;;
70010;SDS011;59543;37.950;-122.338;2023-03-31T12:37:46;25.50;;;4.70;;
70010;SDS011;59543;37.950;-122.338;2023-03-31T12:57:23;19.70;;;5.53;;
70010;SDS011;59543;37.950;-122.338;2023-03-31T13:02:45;20.20;;;4.93;;
70010;SDS011;59543;37.950;-122.338;2023-03-31T13:08:04;25.10;;;5.40;;
70010;SDS011;59543;37.950;-122.338;2023-03-31T13:10:32;17.38;;;4.78;;
70010;SDS011;59543;37.950;-122.338;2023-03-31T13:13:18;28.83;;;5.40;;
70010;SDS011;59543;37.950;-122.338;2023-03-31T13:15:52;25.95;;;5.32;;
70010;SDS011;59543;37.950;-122.338;2023-03-31T13:18:24;22.20;;;5.10;;
70010;SDS011;59543;37.950;-122.338;2023-03-31T13:21:00;21.80;;;4.82;;
70010;SDS011;59543;37.950;-122.338;2023-03-31T13:23:29;25.45;;;5.32;;
70010;SDS011;59543;37.950;-122.338;2023-03-31T13:26:00;19.13;;;4.53;;
70010;SDS011;59543;37.950;-122.338;2023-03-31T13:28:31;21.98;;;4.85;;
70010;SDS011;59543;37.950;-122.338;2023-03-31T13:31:03;18.13;;;4.97;;
70010;SDS011;59543;37.950;-122.338;2023-03-31T13:44:27;24.88;;;4.97;;
70010;SDS011;59543;37.950;-122.338;2023-03-31T14:07:37;19.35;;;4.97;;
70010;SDS011;59543;37.950;-122.338;2023-03-31T14:13:16;19.17;;;5.18;;
70010;SDS011;59543;37.950;-122.338;2023-03-31T14:15:53;22.92;;;5.25;;
70010;SDS011;59543;37.950;-122.338;2023-03-31T14:18:26;24.48;;;5.38;;
70010;SDS011;59543;37.950;-122.338;2023-03-31T14:37:56;21.27;;;5.07;;
70010;SDS011;59543;37.950;-122.338;2023-03-31T14:40:24;26.00;;;6.20;;
70010;SDS011;59543;37.950;-122.338;2023-03-31T14:42:51;15.00;;;4.40;;
70010;SDS011;59543;37.950;-122.338;2023-03-31T14:45:19;20.08;;;5.00;;
70010;SDS011;59543;37.950;-122.338;2023-03-31T14:47:57;21.08;;;5.32;;
70010;SDS011;59543;37.950;-122.338;2023-03-31T14:50:29;24.98;;;6.10;;
70010;SDS011;59543;37.950;-122.338;2023-03-31T14:52:58;16.92;;;4.85;;
70010;SDS011;59543;37.950;-122.338;2023-03-31T14:55:30;23.13;;;5.53;;
70010;SDS011;59543;37.950;-122.338;2023-03-31T14:57:59;23.45;;;5.18;;
70010;SDS011;59543;37.950;-122.338;2023-03-31T15:00:28;28.88;;;6.13;;
70010;SDS011;59543;37.950;-122.338;2023-03-31T15:02:58;23.90;;;5.93;;
70010;SDS011;59543;37.950;-122.338;2023-03-31T15:05:30;21.45;;;5.40;;
70010;SDS011;59543;37.950;-122.338;2023-03-31T15:08:01;23.85;;;6.07;;
70010;SDS011;59543;37.950;-122.338;2023-03-31T15:10:35;34.55;;;7.32;;
70010;SDS011;59543;37.950;-122.338;2023-03-31T15:13:11;30.05;;;6.85;;
70010;SDS011;59543;37.950;-122.338;2023-03-31T15:15:43;27.45;;;6.43;;
70010;SDS011;59543;37.950;-122.338;2023-03-31T15:18:13;27.75;;;6.53;;
70010;SDS011;59543;37.950;-122.338;2023-03-31T15:20:41;27.30;;;6.28;;
70010;SDS011;59543;37.950;-122.338;2023-03-31T15:23:27;31.25;;;6.38;;
70010;SDS011;59543;37.950;-122.338;2023-03-31T15:25:55;30.67;;;6.53;;
70010;SDS011;59543;37.950;-122.338;2023-03-31T15:28:23;23.95;;;5.13;;
70010;SDS011;59543;37.950;-122.338;2023-03-31T15:30:54;23.67;;;5.13;;
70010;SDS011;59543;37.950;-122.338;2023-03-31T15:33:25;21.33;;;5.25;;
70010;SDS011;59543;37.950;-122.338;2023-03-31T15:35:57;20.70;;;5.38;;
70010;SDS011;59543;37.950;-122.338;2023-03-31T15:38:24;30.85;;;6.10;;
70010;SDS011;59543;37.950;-122.338;2023-03-31T15:40:54;29.05;;;5.50;;
70010;SDS011;59543;37.950;-122.338;2023-03-31T15:43:29;23.30;;;5.32;;
70010;SDS011;59543;37.950;-122.338;2023-03-31T15:46:23;23.33;;;4.88;;
70010;SDS011;59543;37.950;-122.338;2023-03-31T15:49:20;21.85;;;5.38;;
70010;SDS011;59543;37.950;-122.338;2023-03-31T15:51:48;22.10;;;4.50;;
70010;SDS011;59543;37.950;-122.338;2023-03-31T15:54:36;23.73;;;5.03;;
70010;SDS011;59543;37.950;-122.338;2023-03-31T15:57:05;28.35;;;5.53;;
70010;SDS011;59543;37.950;-122.338;2023-03-31T15:59:43;23.20;;;4.85;;
70010;SDS011;59543;37.950;-122.338;2023-03-31T16:02:16;23.27;;;5.20;;
70010;SDS011;59543;37.950;-122.338;2023-03-31T16:04:47;30.45;;;5.20;;
70010;SDS011;59543;37.950;-122.338;2023-03-31T16:07:17;25.75;;;5.57;;
70010;SDS011;59543;37.950;-122.338;2023-03-31T16:09:52;26.10;;;5.00;;
70010;SDS011;59543;37.950;-122.338;2023-03-31T16:14:58;26.42;;;5.25;;
70010;SDS011;59543;37.950;-122.338;2023-03-31T16:20:00;26.27;;;5.07;;
70010;SDS011;59543;37.950;-122.338;2023-03-31T16:22:41;22.02;;;5.13;;
70010;SDS011;59543;37.950;-122.338;2023-03-31T16:25:11;21.33;;;4.38;;
70010;SDS011;59543;37.950;-122.338;2023-03-31T16:27:41;23.73;;;5.32;;
70010;SDS011;59543;37.950;-122.338;2023-03-31T16:30:15;29.42;;;5.03;;
70010;SDS011;59543;37.950;-122.338;2023-03-31T16:33:03;21.05;;;5.22;;
70010;SDS011;59543;37.950;-122.338;2023-03-31T16:35:39;24.83;;;5.03;;
70010;SDS011;59543;37.950;-122.338;2023-03-31T16:38:08;28.58;;;5.57;;
70010;SDS011;59543;37.950;-122.338;2023-03-31T16:40:37;23.40;;;4.97;;
70010;SDS011;59543;37.950;-122.338;2023-03-31T16:48:09;31.58;;;5.10;;
70010;SDS011;59543;37.950;-122.338;2023-03-31T16:50:35;29.77;;;5.53;;
70010;SDS011;59543;37.950;-122.338;2023-03-31T16:53:01;18.50;;;4.63;;
70010;SDS011;59543;37.950;-122.338;2023-03-31T16:55:28;24.15;;;4.50;;
70010;SDS011;59543;37.950;-122.338;2023-03-31T16:57:58;23.30;;;5.00;;
70010;SDS011;59543;37.950;-122.338;2023-03-31T17:00:31;24.45;;;4.63;;
70010;SDS011;59543;37.950;-122.338;2023-03-31T17:03:00;25.17;;;4.78;;
70010;SDS011;59543;37.950;-122.338;2023-03-31T17:05:27;30.98;;;5.93;;
70010;SDS011;59543;37.950;-122.338;2023-03-31T17:07:56;23.13;;;4.78;;
70010;SDS011;59543;37.950;-122.338;2023-03-31T17:10:23;23.98;;;5.13;;
70010;SDS011;59543;37.950;-122.338;2023-03-31T17:12:49;23.65;;;5.32;;
70010;SDS011;59543;37.950;-122.338;2023-03-31T17:15:15;20.83;;;4.30;;
70010;SDS011;59543;37.950;-122.338;2023-03-31T17:17:42;20.38;;;4.90;;
70010;SDS011;59543;37.950;-122.338;2023-03-31T17:20:08;19.27;;;4.63;;
70010;SDS011;59543;37.950;-122.338;2023-03-31T17:22:35;30.05;;;5.45;;
70010;SDS011;59543;37.950;-122.338;2023-03-31T17:25:03;26.45;;;5.28;;
70010;SDS011;59543;37.950;-122.338;2023-03-31T17:27:29;23.67;;;4.63;;
70010;SDS011;59543;37.950;-122.338;2023-03-31T17:29:56;29.38;;;5.10;;
70010;SDS011;59543;37.950;-122.338;2023-03-31T17:32:22;21.42;;;4.90;;
70010;SDS011;59543;37.950;-122.338;2023-03-31T17:34:48;31.77;;;5.00;;
70010;SDS011;59543;37.950;-122.338;2023-03-31T17:37:15;19.00;;;4.47;;
70010;SDS011;59543;37.950;-122.338;2023-03-31T17:39:43;22.05;;;4.68;;
70010;SDS011;59543;37.950;-122.338;2023-03-31T17:42:11;27.98;;;4.65;;